createdAt,value
2019-01-27T15:33:51.969Z,215.90
2019-01-27T15:36:22.189Z,192.20
2019-01-27T15:38:52.352Z,210.10
2019-01-27T15:41:22.164Z,207.33
2019-01-27T15:43:52.281Z,298.37
2019-01-27T15:46:22.912Z,375.40
2019-01-27T15:49:11.936Z,294.07
2019-01-27T15:51:42.236Z,300.17
2019-01-27T15:54:12.999Z,286.47
2019-01-27T15:56:43.008Z,245.57
2019-01-27T15:59:14.121Z,222.83
2019-01-27T16:01:44.229Z,198.77
2019-01-27T16:04:14.225Z,197.17
2019-01-27T16:06:44.082Z,196.43
2019-01-27T16:09:13.908Z,211.43
2019-01-27T16:11:43.824Z,213.73
2019-01-27T16:14:13.806Z,212.43
2019-01-27T16:16:43.731Z,205.87
2019-01-27T16:19:14.291Z,220.60
2019-01-27T16:21:44.145Z,185.27
2019-01-27T16:24:28.045Z,204.00
2019-01-27T16:26:57.865Z,197.83
2019-01-27T16:29:55.542Z,191.37
2019-01-27T16:32:44.701Z,208.50
2019-01-27T16:35:18.472Z,212.20
2019-01-27T16:37:48.426Z,207.73
2019-01-27T16:40:18.256Z,216.97
2019-01-27T16:42:48.167Z,213.20
2019-01-27T16:45:18.026Z,240.37
2019-01-27T16:47:47.941Z,237.77
2019-01-27T16:50:17.900Z,247.13
2019-01-27T16:52:47.749Z,221.83
2019-01-27T16:55:17.947Z,230.93
2019-01-27T16:57:47.786Z,239.77
2019-01-27T17:00:23.273Z,250.63
2019-01-27T17:02:53.133Z,248.80
2019-01-27T17:05:23.193Z,268.70
2019-01-27T17:07:54.679Z,254.53
2019-01-27T17:10:24.976Z,240.87
2019-01-27T17:12:54.812Z,249.67
2019-01-27T17:15:24.555Z,244.73
2019-01-27T17:17:54.292Z,243.07
2019-01-27T17:20:26.250Z,243.77
2019-01-27T17:22:56.089Z,270.17
2019-01-27T17:25:26.029Z,268.63
2019-01-27T17:27:55.892Z,235.97
2019-01-27T17:30:26.388Z,221.47
2019-01-27T17:32:56.125Z,208.40
2019-01-27T17:35:26.101Z,185.43
2019-01-27T17:37:55.871Z,159.43
2019-01-27T17:40:25.689Z,154.87
2019-01-27T17:42:56.458Z,161.07
2019-01-27T17:45:26.609Z,153.00
2019-01-27T17:47:57.414Z,155.97
2019-01-27T17:50:28.348Z,154.90
2019-01-27T17:52:58.063Z,148.50
2019-01-27T17:55:43.901Z,143.17
2019-01-27T17:58:43.242Z,141.93
2019-01-27T18:01:30.713Z,127.67
2019-01-27T18:04:16.851Z,127.67
2019-01-27T18:07:23.705Z,121.77
2019-01-27T18:10:10.679Z,118.90
2019-01-27T18:13:01.996Z,115.07
2019-01-27T18:15:31.902Z,111.53
2019-01-27T18:18:01.717Z,111.63
2019-01-27T18:20:31.436Z,107.67
2019-01-27T18:23:02.051Z,110.17
2019-01-27T18:25:31.905Z,101.97
2019-01-27T18:28:01.721Z,102.27
2019-01-27T18:30:31.629Z,109.43
2019-01-27T18:33:01.355Z,92.57
2019-01-27T18:35:31.857Z,81.63
2019-01-27T18:38:02.441Z,85.50
2019-01-27T18:40:32.404Z,87.53
2019-01-27T18:43:02.124Z,91.10
2019-01-27T18:45:31.891Z,86.43
2019-01-27T18:48:01.636Z,86.37
2019-01-27T18:50:32.362Z,84.90
2019-01-27T18:53:29.646Z,86.40
2019-01-27T18:56:36.709Z,69.53
2019-01-27T18:59:25.368Z,76.93
2019-01-27T19:02:17.249Z,79.00
2019-01-27T19:05:05.865Z,79.73
2019-01-27T19:07:45.424Z,79.40
2019-01-27T19:10:30.287Z,82.13
2019-01-27T19:13:09.849Z,71.60
2019-01-27T19:15:53.223Z,81.27
2019-01-27T19:19:16.342Z,82.53
2019-01-27T19:22:13.872Z,78.20
2019-01-27T19:25:01.352Z,79.10
2019-01-27T19:27:40.113Z,79.13
2019-01-27T19:30:48.086Z,66.97
2019-01-27T19:34:06.267Z,63.80
2019-01-27T19:37:04.596Z,63.00
2019-01-27T19:39:56.188Z,63.30
2019-01-27T19:42:33.297Z,60.03
2019-01-27T19:45:20.445Z,66.73
2019-01-27T19:48:06.812Z,62.57
2019-01-27T19:50:53.670Z,59.07
2019-01-27T19:53:40.061Z,73.23
2019-01-27T19:56:28.603Z,72.47
2019-01-27T19:59:17.224Z,74.30
2019-01-27T20:02:05.779Z,70.53
2019-01-27T20:05:00.959Z,64.77
2019-01-27T20:07:41.492Z,60.03
2019-01-27T20:10:23.633Z,54.43
2019-01-27T20:13:15.283Z,70.47
2019-01-27T20:16:07.252Z,71.03
2019-01-27T20:18:54.568Z,62.70
2019-01-27T20:21:53.271Z,63.53
2019-01-27T20:24:40.034Z,57.20
2019-01-27T20:27:28.664Z,57.60
2019-01-27T20:30:21.849Z,54.60
2019-01-27T20:33:16.612Z,47.53
2019-01-27T20:36:08.172Z,52.97
2019-01-27T20:38:55.697Z,53.17
2019-01-27T20:41:53.532Z,55.13
2019-01-27T20:44:35.051Z,46.67
2019-01-27T20:47:22.513Z,53.87
2019-01-27T20:50:12.058Z,54.17
2019-01-27T20:52:51.343Z,56.47
2019-01-27T20:55:38.714Z,49.80
2019-01-27T20:58:25.928Z,53.43
2019-01-27T21:01:23.515Z,55.13
2019-01-27T21:04:08.481Z,60.53
2019-01-27T21:07:03.293Z,57.53
2019-01-27T21:09:49.417Z,54.27
2019-01-27T21:12:37.924Z,57.63
2019-01-27T21:15:37.663Z,55.60
2019-01-27T21:18:20.354Z,54.73
2019-01-27T21:20:53.600Z,55.53
2019-01-27T21:23:21.391Z,56.47
2019-01-27T21:25:51.060Z,55.87
2019-01-27T21:28:20.764Z,55.17
2019-01-27T21:30:50.438Z,55.70
2019-01-27T21:33:20.109Z,55.07
2019-01-27T21:35:49.916Z,59.43
2019-01-27T21:38:19.622Z,56.10
2019-01-27T21:40:49.279Z,59.83
2019-01-27T21:43:19.027Z,57.00
2019-01-27T21:45:48.698Z,57.30
2019-01-27T21:48:18.366Z,56.97
2019-01-27T21:50:48.053Z,57.93
2019-01-27T21:53:17.726Z,61.13
2019-01-27T21:55:47.378Z,60.43
2019-01-27T21:58:17.045Z,57.50
2019-01-27T22:01:06.393Z,59.10
2019-01-27T22:03:36.432Z,56.97
2019-01-27T22:06:06.405Z,58.53
2019-01-27T22:08:36.139Z,62.77
2019-01-27T22:11:05.809Z,61.23
2019-01-27T22:13:35.528Z,64.97
2019-01-27T22:16:05.190Z,62.13
2019-01-27T22:18:34.880Z,61.70
2019-01-27T22:21:04.656Z,64.30
2019-01-27T22:23:34.318Z,60.13
2019-01-27T22:26:03.982Z,62.67
2019-01-27T22:28:33.791Z,61.90
2019-01-27T22:31:03.857Z,65.30
2019-01-27T22:33:33.516Z,61.80
2019-01-27T22:36:03.215Z,59.63
2019-01-27T22:38:32.968Z,63.17
2019-01-27T22:41:02.651Z,62.53
2019-01-27T22:43:32.305Z,63.17
2019-01-27T22:46:21.019Z,63.40
2019-01-27T22:48:50.853Z,63.20
2019-01-27T22:51:20.547Z,63.73
2019-01-27T22:53:50.233Z,61.40
2019-01-27T22:56:19.900Z,63.27
2019-01-27T22:58:49.577Z,65.17
2019-01-27T23:01:20.053Z,63.93
2019-01-27T23:03:52.411Z,65.20
2019-01-27T23:06:22.056Z,63.87
2019-01-27T23:08:51.806Z,60.83
2019-01-27T23:11:21.480Z,64.63
2019-01-27T23:13:51.147Z,65.83
2019-01-27T23:16:20.835Z,64.80
2019-01-27T23:18:50.673Z,66.10
2019-01-27T23:21:20.323Z,65.27
2019-01-27T23:23:49.987Z,64.17
2019-01-27T23:26:19.652Z,66.43
2019-01-27T23:28:49.384Z,66.77
2019-01-27T23:31:19.055Z,65.27
2019-01-27T23:33:48.724Z,64.60
2019-01-27T23:36:18.416Z,63.07
2019-01-27T23:38:48.183Z,65.53
2019-01-27T23:41:17.854Z,68.57
2019-01-27T23:43:47.517Z,67.00
2019-01-27T23:46:17.176Z,67.13
2019-01-27T23:48:46.920Z,62.77
2019-01-27T23:51:16.631Z,64.57
2019-01-27T23:53:46.303Z,68.47
2019-01-27T23:56:15.965Z,71.23
2019-01-27T23:58:45.699Z,67.70
